sensor_id;sensor_type;location;lat;lon;timestamp;P1;durP1;ratioP1;P2;durP2;ratioP2
49842;SDS011;55559;48.898;9.184;2023-04-21T00:02:13;37.63;;;27.58;;
49842;SDS011;55559;48.898;9.184;2023-04-21T00:04:43;35.53;;;28.80;;
49842;SDS011;55559;48.898;9.184;2023-04-21T00:07:10;38.10;;;27.73;;
49842;SDS011;55559;48.898;9.184;2023-04-21T00:09:39;34.72;;;27.00;;
49842;SDS011;55559;48.898;9.184;2023-04-21T00:12:06;38.92;;;28.98;;
49842;SDS011;55559;48.898;9.184;2023-04-21T00:14:33;35.90;;;27.98;;
49842;SDS011;55559;48.898;9.184;2023-04-21T00:17:00;41.22;;;28.90;;
49842;SDS011;55559;48.898;9.184;2023-04-21T00:19:27;45.13;;;29.63;;
49842;SDS011;55559;48.898;9.184;2023-04-21T00:21:57;49.53;;;31.55;;
49842;SDS011;55559;48.898;9.184;2023-04-21T00:24:25;45.60;;;33.25;;
49842;SDS011;55559;48.898;9.184;2023-04-21T00:26:52;45.38;;;32.60;;
49842;SDS011;55559;48.898;9.184;2023-04-21T00:29:19;52.55;;;34.90;;
49842;SDS011;55559;48.898;9.184;2023-04-21T00:31:47;47.65;;;33.63;;
49842;SDS011;55559;48.898;9.184;2023-04-21T00:34:15;56.00;;;36.47;;
49842;SDS011;55559;48.898;9.184;2023-04-21T00:36:44;53.88;;;34.60;;
49842;SDS011;55559;48.898;9.184;2023-04-21T00:39:12;51.00;;;33.67;;
49842;SDS011;55559;48.898;9.184;2023-04-21T00:41:40;50.15;;;35.00;;
49842;SDS011;55559;48.898;9.184;2023-04-21T00:44:08;51.67;;;34.67;;
49842;SDS011;55559;48.898;9.184;2023-04-21T00:46:35;50.40;;;32.05;;
49842;SDS011;55559;48.898;9.184;2023-04-21T00:49:04;48.42;;;31.77;;
49842;SDS011;55559;48.898;9.184;2023-04-21T00:51:32;46.17;;;32.33;;
49842;SDS011;55559;48.898;9.184;2023-04-21T00:54:01;48.03;;;31.52;;
49842;SDS011;55559;48.898;9.184;2023-04-21T00:56:33;45.53;;;31.25;;
49842;SDS011;55559;48.898;9.184;2023-04-21T00:59:01;48.35;;;31.90;;
49842;SDS011;55559;48.898;9.184;2023-04-21T01:01:31;45.17;;;31.15;;
49842;SDS011;55559;48.898;9.184;2023-04-21T01:04:00;47.10;;;32.35;;
49842;SDS011;55559;48.898;9.184;2023-04-21T01:06:29;43.85;;;31.45;;
49842;SDS011;55559;48.898;9.184;2023-04-21T01:08:58;47.30;;;31.17;;
49842;SDS011;55559;48.898;9.184;2023-04-21T01:11:25;43.38;;;30.92;;
49842;SDS011;55559;48.898;9.184;2023-04-21T01:13:54;44.13;;;30.27;;
49842;SDS011;55559;48.898;9.184;2023-04-21T01:16:21;44.85;;;31.50;;
49842;SDS011;55559;48.898;9.184;2023-04-21T01:18:52;41.10;;;29.65;;
49842;SDS011;55559;48.898;9.184;2023-04-21T01:21:19;42.20;;;30.52;;
49842;SDS011;55559;48.898;9.184;2023-04-21T01:23:48;48.70;;;32.38;;
49842;SDS011;55559;48.898;9.184;2023-04-21T01:26:16;41.95;;;29.15;;
49842;SDS011;55559;48.898;9.184;2023-04-21T01:28:48;43.33;;;30.80;;
49842;SDS011;55559;48.898;9.184;2023-04-21T01:31:15;40.45;;;29.20;;
49842;SDS011;55559;48.898;9.184;2023-04-21T01:33:43;42.17;;;30.63;;
49842;SDS011;55559;48.898;9.184;2023-04-21T01:36:10;42.08;;;29.88;;
49842;SDS011;55559;48.898;9.184;2023-04-21T01:38:37;44.65;;;31.17;;
49842;SDS011;55559;48.898;9.184;2023-04-21T01:41:09;43.30;;;30.30;;
49842;SDS011;55559;48.898;9.184;2023-04-21T01:43:36;41.55;;;28.77;;
49842;SDS011;55559;48.898;9.184;2023-04-21T01:46:03;42.47;;;30.10;;
49842;SDS011;55559;48.898;9.184;2023-04-21T01:48:31;44.60;;;28.95;;
49842;SDS011;55559;48.898;9.184;2023-04-21T01:50:58;44.65;;;30.08;;
49842;SDS011;55559;48.898;9.184;2023-04-21T01:53:25;48.65;;;32.65;;
49842;SDS011;55559;48.898;9.184;2023-04-21T01:55:52;47.47;;;31.05;;
49842;SDS011;55559;48.898;9.184;2023-04-21T01:58:21;46.95;;;31.23;;
49842;SDS011;55559;48.898;9.184;2023-04-21T02:00:50;49.03;;;31.95;;
49842;SDS011;55559;48.898;9.184;2023-04-21T02:03:17;44.25;;;30.88;;
49842;SDS011;55559;48.898;9.184;2023-04-21T02:05:45;45.25;;;32.00;;
49842;SDS011;55559;48.898;9.184;2023-04-21T02:08:13;49.08;;;32.28;;
49842;SDS011;55559;48.898;9.184;2023-04-21T02:10:42;52.63;;;34.33;;
49842;SDS011;55559;48.898;9.184;2023-04-21T02:13:10;47.92;;;31.48;;
49842;SDS011;55559;48.898;9.184;2023-04-21T02:15:39;44.65;;;29.85;;
49842;SDS011;55559;48.898;9.184;2023-04-21T02:18:09;53.85;;;32.78;;
49842;SDS011;55559;48.898;9.184;2023-04-21T02:20:36;49.80;;;32.35;;
49842;SDS011;55559;48.898;9.184;2023-04-21T02:23:05;55.40;;;33.90;;
49842;SDS011;55559;48.898;9.184;2023-04-21T02:25:32;57.25;;;34.33;;
49842;SDS011;55559;48.898;9.184;2023-04-21T02:27:59;52.38;;;33.33;;
49842;SDS011;55559;48.898;9.184;2023-04-21T02:30:26;50.10;;;31.38;;
49842;SDS011;55559;48.898;9.184;2023-04-21T02:32:54;50.60;;;31.08;;
49842;SDS011;55559;48.898;9.184;2023-04-21T02:35:21;48.88;;;33.20;;
49842;SDS011;55559;48.898;9.184;2023-04-21T02:37:51;49.25;;;31.35;;
49842;SDS011;55559;48.898;9.184;2023-04-21T02:40:21;48.65;;;32.10;;
49842;SDS011;55559;48.898;9.184;2023-04-21T02:42:53;52.15;;;31.85;;
49842;SDS011;55559;48.898;9.184;2023-04-21T02:45:19;49.83;;;31.83;;
49842;SDS011;55559;48.898;9.184;2023-04-21T02:47:47;54.25;;;34.13;;
49842;SDS011;55559;48.898;9.184;2023-04-21T02:50:15;52.90;;;33.05;;
49842;SDS011;55559;48.898;9.184;2023-04-21T02:52:43;51.10;;;32.45;;
49842;SDS011;55559;48.898;9.184;2023-04-21T02:55:10;49.92;;;32.35;;
49842;SDS011;55559;48.898;9.184;2023-04-21T02:57:37;55.67;;;33.00;;
49842;SDS011;55559;48.898;9.184;2023-04-21T03:00:05;49.17;;;32.20;;
49842;SDS011;55559;48.898;9.184;2023-04-21T03:02:36;54.95;;;32.40;;
49842;SDS011;55559;48.898;9.184;2023-04-21T03:05:03;51.50;;;32.42;;
49842;SDS011;55559;48.898;9.184;2023-04-21T03:07:32;54.97;;;32.78;;
49842;SDS011;55559;48.898;9.184;2023-04-21T03:09:59;57.15;;;33.10;;
49842;SDS011;55559;48.898;9.184;2023-04-21T03:12:26;55.03;;;33.35;;
49842;SDS011;55559;48.898;9.184;2023-04-21T03:14:53;54.88;;;32.58;;
49842;SDS011;55559;48.898;9.184;2023-04-21T03:17:20;53.17;;;33.45;;
49842;SDS011;55559;48.898;9.184;2023-04-21T03:19:48;54.72;;;32.30;;
49842;SDS011;55559;48.898;9.184;2023-04-21T03:22:19;54.42;;;32.90;;
49842;SDS011;55559;48.898;9.184;2023-04-21T03:24:50;54.42;;;33.55;;
49842;SDS011;55559;48.898;9.184;2023-04-21T03:27:17;52.55;;;32.47;;
49842;SDS011;55559;48.898;9.184;2023-04-21T03:29:45;55.92;;;34.30;;
49842;SDS011;55559;48.898;9.184;2023-04-21T03:32:13;53.38;;;31.80;;
49842;SDS011;55559;48.898;9.184;2023-04-21T03:34:40;56.10;;;32.75;;
49842;SDS011;55559;48.898;9.184;2023-04-21T03:37:08;50.30;;;31.23;;
49842;SDS011;55559;48.898;9.184;2023-04-21T03:39:35;57.50;;;34.53;;
49842;SDS011;55559;48.898;9.184;2023-04-21T03:42:03;51.33;;;31.00;;
49842;SDS011;55559;48.898;9.184;2023-04-21T03:44:31;54.83;;;31.45;;
49842;SDS011;55559;48.898;9.184;2023-04-21T03:47:00;56.85;;;33.15;;
49842;SDS011;55559;48.898;9.184;2023-04-21T03:49:28;49.70;;;31.42;;
49842;SDS011;55559;48.898;9.184;2023-04-21T03:51:55;52.00;;;31.35;;
49842;SDS011;55559;48.898;9.184;2023-04-21T03:54:22;53.45;;;31.88;;
49842;SDS011;55559;48.898;9.184;2023-04-21T03:56:50;55.80;;;32.10;;
49842;SDS011;55559;48.898;9.184;2023-04-21T03:59:18;54.28;;;31.98;;
49842;SDS011;55559;48.898;9.184;2023-04-21T04:01:49;59.90;;;32.45;;
49842;SDS011;55559;48.898;9.184;2023-04-21T04:04:16;55.05;;;32.58;;
49842;SDS011;55559;48.898;9.184;2023-04-21T04:06:44;53.97;;;32.55;;
49842;SDS011;55559;48.898;9.184;2023-04-21T04:09:15;56.92;;;32.88;;
49842;SDS011;55559;48.898;9.184;2023-04-21T04:11:45;57.08;;;32.55;;
49842;SDS011;55559;48.898;9.184;2023-04-21T04:14:12;56.92;;;32.17;;
49842;SDS011;55559;48.898;9.184;2023-04-21T04:16:41;51.80;;;32.13;;
49842;SDS011;55559;48.898;9.184;2023-04-21T04:19:08;63.05;;;32.83;;
49842;SDS011;55559;48.898;9.184;2023-04-21T04:21:35;58.97;;;33.03;;
49842;SDS011;55559;48.898;9.184;2023-04-21T04:24:02;53.50;;;30.58;;
49842;SDS011;55559;48.898;9.184;2023-04-21T04:26:30;48.88;;;30.25;;
49842;SDS011;55559;48.898;9.184;2023-04-21T04:29:02;56.20;;;31.02;;
49842;SDS011;55559;48.898;9.184;2023-04-21T04:31:34;52.90;;;30.70;;
49842;SDS011;55559;48.898;9.184;2023-04-21T04:34:03;58.63;;;32.15;;
49842;SDS011;55559;48.898;9.184;2023-04-21T04:36:31;57.60;;;34.25;;
49842;SDS011;55559;48.898;9.184;2023-04-21T04:38:58;55.42;;;31.42;;
49842;SDS011;55559;48.898;9.184;2023-04-21T04:41:25;51.05;;;31.25;;
49842;SDS011;55559;48.898;9.184;2023-04-21T04:43:52;53.60;;;31.52;;
49842;SDS011;55559;48.898;9.184;2023-04-21T04:46:19;43.75;;;27.70;;
49842;SDS011;55559;48.898;9.184;2023-04-21T04:48:46;50.25;;;29.17;;
49842;SDS011;55559;48.898;9.184;2023-04-21T04:51:15;42.78;;;26.77;;
49842;SDS011;55559;48.898;9.184;2023-04-21T04:53:42;43.38;;;26.23;;
49842;SDS011;55559;48.898;9.184;2023-04-21T04:56:09;41.92;;;25.67;;
49842;SDS011;55559;48.898;9.184;2023-04-21T04:58:36;33.65;;;22.70;;
49842;SDS011;55559;48.898;9.184;2023-04-21T05:01:12;37.75;;;24.02;;
49842;SDS011;55559;48.898;9.184;2023-04-21T05:03:40;33.33;;;23.10;;
49842;SDS011;55559;48.898;9.184;2023-04-21T05:06:07;30.27;;;21.60;;
49842;SDS011;55559;48.898;9.184;2023-04-21T05:08:36;33.78;;;22.77;;
49842;SDS011;55559;48.898;9.184;2023-04-21T05:11:04;34.60;;;22.98;;
49842;SDS011;55559;48.898;9.184;2023-04-21T05:13:31;36.05;;;23.30;;
49842;SDS011;55559;48.898;9.184;2023-04-21T05:15:58;33.78;;;22.00;;
49842;SDS011;55559;48.898;9.184;2023-04-21T05:18:28;29.92;;;21.10;;
49842;SDS011;55559;48.898;9.184;2023-04-21T05:20:55;30.58;;;21.88;;
49842;SDS011;55559;48.898;9.184;2023-04-21T05:23:22;31.83;;;22.77;;
49842;SDS011;55559;48.898;9.184;2023-04-21T05:25:51;36.20;;;22.88;;
49842;SDS011;55559;48.898;9.184;2023-04-21T05:28:18;35.47;;;25.05;;
49842;SDS011;55559;48.898;9.184;2023-04-21T05:30:45;42.60;;;26.55;;
49842;SDS011;55559;48.898;9.184;2023-04-21T05:33:13;37.20;;;25.30;;
49842;SDS011;55559;48.898;9.184;2023-04-21T05:35:40;39.88;;;27.27;;
49842;SDS011;55559;48.898;9.184;2023-04-21T05:38:07;47.17;;;26.08;;
49842;SDS011;55559;48.898;9.184;2023-04-21T05:40:33;43.80;;;26.92;;
49842;SDS011;55559;48.898;9.184;2023-04-21T05:43:02;42.30;;;24.60;;
49842;SDS011;55559;48.898;9.184;2023-04-21T05:45:29;38.33;;;26.38;;
49842;SDS011;55559;48.898;9.184;2023-04-21T05:47:56;38.63;;;25.75;;
49842;SDS011;55559;48.898;9.184;2023-04-21T05:50:23;35.10;;;23.98;;
49842;SDS011;55559;48.898;9.184;2023-04-21T05:52:52;36.05;;;23.45;;
49842;SDS011;55559;48.898;9.184;2023-04-21T05:55:19;37.50;;;24.50;;
49842;SDS011;55559;48.898;9.184;2023-04-21T05:57:46;35.05;;;23.30;;
49842;SDS011;55559;48.898;9.184;2023-04-21T06:00:15;34.28;;;23.25;;
49842;SDS011;55559;48.898;9.184;2023-04-21T06:02:42;37.65;;;24.85;;
49842;SDS011;55559;48.898;9.184;2023-04-21T06:05:09;41.60;;;24.25;;
49842;SDS011;55559;48.898;9.184;2023-04-21T06:07:36;36.03;;;23.52;;
49842;SDS011;55559;48.898;9.184;2023-04-21T06:10:03;39.63;;;26.55;;
49842;SDS011;55559;48.898;9.184;2023-04-21T06:12:30;40.17;;;25.67;;
49842;SDS011;55559;48.898;9.184;2023-04-21T06:14:57;47.97;;;28.65;;
49842;SDS011;55559;48.898;9.184;2023-04-21T06:17:25;39.25;;;26.70;;
49842;SDS011;55559;48.898;9.184;2023-04-21T06:19:52;44.28;;;27.35;;
49842;SDS011;55559;48.898;9.184;2023-04-21T06:22:20;34.33;;;23.55;;
49842;SDS011;55559;48.898;9.184;2023-04-21T06:24:47;40.05;;;26.77;;
49842;SDS011;55559;48.898;9.184;2023-04-21T06:27:14;34.03;;;24.52;;
49842;SDS011;55559;48.898;9.184;2023-04-21T06:29:41;39.30;;;23.73;;
49842;SDS011;55559;48.898;9.184;2023-04-21T06:32:08;37.58;;;23.45;;
49842;SDS011;55559;48.898;9.184;2023-04-21T06:34:37;39.33;;;25.10;;
49842;SDS011;55559;48.898;9.184;2023-04-21T06:37:04;32.33;;;22.08;;
49842;SDS011;55559;48.898;9.184;2023-04-21T06:39:31;39.40;;;24.33;;
49842;SDS011;55559;48.898;9.184;2023-04-21T06:41:58;39.25;;;25.30;;
49842;SDS011;55559;48.898;9.184;2023-04-21T06:44:25;33.03;;;22.23;;
49842;SDS011;55559;48.898;9.184;2023-04-21T06:46:52;33.05;;;22.05;;
49842;SDS011;55559;48.898;9.184;2023-04-21T06:49:19;31.17;;;22.02;;
49842;SDS011;55559;48.898;9.184;2023-04-21T06:51:49;25.95;;;20.73;;
49842;SDS011;55559;48.898;9.184;2023-04-21T06:54:22;23.23;;;18.10;;
49842;SDS011;55559;48.898;9.184;2023-04-21T07:11:31;24.55;;;17.08;;
49842;SDS011;55559;48.898;9.184;2023-04-21T07:13:58;21.42;;;17.90;;
49842;SDS011;55559;48.898;9.184;2023-04-21T07:16:54;23.50;;;17.40;;
49842;SDS011;55559;48.898;9.184;2023-04-21T07:19:24;26.75;;;19.35;;
49842;SDS011;55559;48.898;9.184;2023-04-21T07:25:40;22.08;;;17.63;;
49842;SDS011;55559;48.898;9.184;2023-04-21T07:29:13;28.10;;;18.33;;
49842;SDS011;55559;48.898;9.184;2023-04-21T07:32:32;35.47;;;18.15;;
49842;SDS011;55559;48.898;9.184;2023-04-21T07:36:54;24.05;;;17.45;;
49842;SDS011;55559;48.898;9.184;2023-04-21T07:39:52;25.02;;;18.02;;
49842;SDS011;55559;48.898;9.184;2023-04-21T07:43:11;21.27;;;15.98;;
49842;SDS011;55559;48.898;9.184;2023-04-21T07:46:34;20.63;;;16.80;;
49842;SDS011;55559;48.898;9.184;2023-04-21T07:50:07;19.08;;;15.43;;
49842;SDS011;55559;48.898;9.184;2023-04-21T07:57:33;24.05;;;14.57;;
49842;SDS011;55559;48.898;9.184;2023-04-21T08:19:25;16.77;;;11.85;;
49842;SDS011;55559;48.898;9.184;2023-04-21T08:26:42;16.50;;;10.95;;
49842;SDS011;55559;48.898;9.184;2023-04-21T08:33:32;19.17;;;9.27;;
49842;SDS011;55559;48.898;9.184;2023-04-21T08:40:25;12.30;;;10.00;;
49842;SDS011;55559;48.898;9.184;2023-04-21T08:50:10;10.23;;;9.07;;
49842;SDS011;55559;48.898;9.184;2023-04-21T08:52:55;9.48;;;8.40;;
49842;SDS011;55559;48.898;9.184;2023-04-21T08:55:43;8.75;;;7.03;;
49842;SDS011;55559;48.898;9.184;2023-04-21T08:58:52;7.72;;;6.90;;
49842;SDS011;55559;48.898;9.184;2023-04-21T09:01:25;6.47;;;5.82;;
49842;SDS011;55559;48.898;9.184;2023-04-21T09:04:22;7.65;;;6.88;;
49842;SDS011;55559;48.898;9.184;2023-04-21T09:17:54;6.78;;;5.07;;
49842;SDS011;55559;48.898;9.184;2023-04-21T09:20:22;9.55;;;5.28;;
49842;SDS011;55559;48.898;9.184;2023-04-21T09:22:52;8.38;;;5.93;;
49842;SDS011;55559;48.898;9.184;2023-04-21T09:25:28;7.95;;;5.82;;
49842;SDS011;55559;48.898;9.184;2023-04-21T09:28:04;7.65;;;5.55;;
49842;SDS011;55559;48.898;9.184;2023-04-21T09:31:14;6.07;;;5.40;;
49842;SDS011;55559;48.898;9.184;2023-04-21T09:33:46;5.33;;;4.63;;
49842;SDS011;55559;48.898;9.184;2023-04-21T09:36:17;5.45;;;4.35;;
49842;SDS011;55559;48.898;9.184;2023-04-21T09:38:49;9.30;;;4.97;;
49842;SDS011;55559;48.898;9.184;2023-04-21T09:41:21;6.88;;;4.63;;
49842;SDS011;55559;48.898;9.184;2023-04-21T09:43:48;5.47;;;4.93;;
49842;SDS011;55559;48.898;9.184;2023-04-21T09:46:16;6.43;;;5.82;;
49842;SDS011;55559;48.898;9.184;2023-04-21T10:03:42;6.55;;;5.93;;
49842;SDS011;55559;48.898;9.184;2023-04-21T10:12:17;9.50;;;6.32;;
49842;SDS011;55559;48.898;9.184;2023-04-21T10:14:09;8.27;;;5.78;;
49842;SDS011;55559;48.898;9.184;2023-04-21T10:16:36;7.63;;;5.80;;
49842;SDS011;55559;48.898;9.184;2023-04-21T10:19:17;9.35;;;5.63;;
49842;SDS011;55559;48.898;9.184;2023-04-21T10:21:48;8.75;;;6.50;;
49842;SDS011;55559;48.898;9.184;2023-04-21T10:24:18;7.05;;;4.95;;
49842;SDS011;55559;48.898;9.184;2023-04-21T10:26:45;9.30;;;5.60;;
49842;SDS011;55559;48.898;9.184;2023-04-21T10:29:12;6.35;;;5.50;;
49842;SDS011;55559;48.898;9.184;2023-04-21T10:31:48;5.97;;;5.20;;
49842;SDS011;55559;48.898;9.184;2023-04-21T10:34:27;7.38;;;5.78;;
49842;SDS011;55559;48.898;9.184;2023-04-21T10:39:50;34.58;;;17.98;;
49842;SDS011;55559;48.898;9.184;2023-04-21T10:42:22;38.38;;;19.55;;
49842;SDS011;55559;48.898;9.184;2023-04-21T10:44:59;5.53;;;4.95;;
49842;SDS011;55559;48.898;9.184;2023-04-21T10:47:28;6.68;;;4.72;;
49842;SDS011;55559;48.898;9.184;2023-04-21T10:50:11;10.63;;;5.80;;
49842;SDS011;55559;48.898;9.184;2023-04-21T10:52:43;5.82;;;5.20;;
49842;SDS011;55559;48.898;9.184;2023-04-21T10:55:11;5.15;;;4.53;;
49842;SDS011;55559;48.898;9.184;2023-04-21T10:57:40;5.20;;;4.50;;
49842;SDS011;55559;48.898;9.184;2023-04-21T11:00:10;6.78;;;4.72;;
49842;SDS011;55559;48.898;9.184;2023-04-21T11:02:41;4.90;;;4.40;;
49842;SDS011;55559;48.898;9.184;2023-04-21T11:05:32;6.78;;;5.00;;
49842;SDS011;55559;48.898;9.184;2023-04-21T11:08:06;5.93;;;5.22;;
49842;SDS011;55559;48.898;9.184;2023-04-21T11:10:47;8.02;;;5.15;;
49842;SDS011;55559;48.898;9.184;2023-04-21T11:13:19;6.80;;;5.40;;
49842;SDS011;55559;48.898;9.184;2023-04-21T11:15:54;9.02;;;5.97;;
49842;SDS011;55559;48.898;9.184;2023-04-21T11:18:30;9.32;;;6.68;;
49842;SDS011;55559;48.898;9.184;2023-04-21T11:21:06;6.65;;;5.22;;
49842;SDS011;55559;48.898;9.184;2023-04-21T11:23:40;5.72;;;5.22;;
49842;SDS011;55559;48.898;9.184;2023-04-21T11:26:13;10.10;;;4.65;;
49842;SDS011;55559;48.898;9.184;2023-04-21T11:28:41;5.05;;;4.55;;
49842;SDS011;55559;48.898;9.184;2023-04-21T11:31:09;9.60;;;5.70;;
49842;SDS011;55559;48.898;9.184;2023-04-21T11:33:37;7.72;;;4.72;;
49842;SDS011;55559;48.898;9.184;2023-04-21T11:36:07;5.50;;;5.00;;
49842;SDS011;55559;48.898;9.184;2023-04-21T11:38:38;5.82;;;5.15;;
49842;SDS011;55559;48.898;9.184;2023-04-21T11:41:08;7.32;;;4.82;;
49842;SDS011;55559;48.898;9.184;2023-04-21T11:43:36;4.93;;;4.07;;
49842;SDS011;55559;48.898;9.184;2023-04-21T11:46:11;5.45;;;4.90;;
49842;SDS011;55559;48.898;9.184;2023-04-21T11:48:57;5.10;;;3.50;;
49842;SDS011;55559;48.898;9.184;2023-04-21T11:51:26;5.88;;;3.95;;
49842;SDS011;55559;48.898;9.184;2023-04-21T11:53:59;9.50;;;3.60;;
49842;SDS011;55559;48.898;9.184;2023-04-21T11:56:26;4.45;;;4.05;;
49842;SDS011;55559;48.898;9.184;2023-04-21T11:58:54;6.50;;;4.53;;
49842;SDS011;55559;48.898;9.184;2023-04-21T12:01:21;7.93;;;4.70;;
49842;SDS011;55559;48.898;9.184;2023-04-21T12:03:50;25.40;;;9.77;;
49842;SDS011;55559;48.898;9.184;2023-04-21T12:06:24;14.75;;;6.68;;
49842;SDS011;55559;48.898;9.184;2023-04-21T12:08:58;16.58;;;8.48;;
49842;SDS011;55559;48.898;9.184;2023-04-21T12:11:27;63.55;;;8.85;;
49842;SDS011;55559;48.898;9.184;2023-04-21T12:13:55;8.77;;;4.20;;
49842;SDS011;55559;48.898;9.184;2023-04-21T12:16:24;7.53;;;5.10;;
49842;SDS011;55559;48.898;9.184;2023-04-21T12:18:52;17.40;;;4.80;;
49842;SDS011;55559;48.898;9.184;2023-04-21T12:21:20;5.63;;;4.28;;
49842;SDS011;55559;48.898;9.184;2023-04-21T12:23:48;7.53;;;5.57;;
49842;SDS011;55559;48.898;9.184;2023-04-21T12:26:17;15.75;;;5.75;;
49842;SDS011;55559;48.898;9.184;2023-04-21T12:28:44;7.47;;;5.28;;
49842;SDS011;55559;48.898;9.184;2023-04-21T12:31:11;7.15;;;5.43;;
49842;SDS011;55559;48.898;9.184;2023-04-21T12:33:39;6.72;;;4.55;;
49842;SDS011;55559;48.898;9.184;2023-04-21T12:36:07;7.38;;;4.95;;
49842;SDS011;55559;48.898;9.184;2023-04-21T12:38:34;6.82;;;4.63;;
49842;SDS011;55559;48.898;9.184;2023-04-21T12:41:02;6.57;;;4.13;;
49842;SDS011;55559;48.898;9.184;2023-04-21T12:43:31;5.28;;;4.78;;
49842;SDS011;55559;48.898;9.184;2023-04-21T12:45:59;8.10;;;4.15;;
49842;SDS011;55559;48.898;9.184;2023-04-21T12:48:27;5.93;;;5.22;;
49842;SDS011;55559;48.898;9.184;2023-04-21T12:50:54;5.35;;;4.63;;
49842;SDS011;55559;48.898;9.184;2023-04-21T12:53:22;3.97;;;3.50;;
49842;SDS011;55559;48.898;9.184;2023-04-21T12:55:50;4.13;;;3.80;;
49842;SDS011;55559;48.898;9.184;2023-04-21T12:58:17;4.75;;;4.10;;
49842;SDS011;55559;48.898;9.184;2023-04-21T13:00:46;4.78;;;4.22;;
49842;SDS011;55559;48.898;9.184;2023-04-21T13:03:13;4.47;;;4.07;;
49842;SDS011;55559;48.898;9.184;2023-04-21T13:05:41;4.32;;;2.85;;
49842;SDS011;55559;48.898;9.184;2023-04-21T13:08:09;3.25;;;2.53;;
49842;SDS011;55559;48.898;9.184;2023-04-21T13:10:36;3.47;;;3.00;;
49842;SDS011;55559;48.898;9.184;2023-04-21T13:13:04;3.78;;;2.97;;
49842;SDS011;55559;48.898;9.184;2023-04-21T13:15:32;3.65;;;2.95;;
49842;SDS011;55559;48.898;9.184;2023-04-21T13:18:01;4.18;;;3.08;;
49842;SDS011;55559;48.898;9.184;2023-04-21T13:20:28;3.88;;;3.50;;
49842;SDS011;55559;48.898;9.184;2023-04-21T13:22:56;3.97;;;3.58;;
49842;SDS011;55559;48.898;9.184;2023-04-21T13:25:23;4.07;;;3.17;;
49842;SDS011;55559;48.898;9.184;2023-04-21T13:27:51;4.93;;;2.97;;
49842;SDS011;55559;48.898;9.184;2023-04-21T13:30:18;5.80;;;2.72;;
49842;SDS011;55559;48.898;9.184;2023-04-21T13:32:47;5.13;;;2.63;;
49842;SDS011;55559;48.898;9.184;2023-04-21T13:35:16;3.55;;;2.42;;
49842;SDS011;55559;48.898;9.184;2023-04-21T13:37:44;4.50;;;2.85;;
49842;SDS011;55559;48.898;9.184;2023-04-21T13:40:11;4.72;;;2.42;;
49842;SDS011;55559;48.898;9.184;2023-04-21T13:42:39;3.10;;;2.83;;
49842;SDS011;55559;48.898;9.184;2023-04-21T13:45:07;7.40;;;3.70;;
49842;SDS011;55559;48.898;9.184;2023-04-21T13:47:35;3.80;;;2.78;;
49842;SDS011;55559;48.898;9.184;2023-04-21T13:50:02;3.78;;;2.70;;
49842;SDS011;55559;48.898;9.184;2023-04-21T13:52:32;5.68;;;3.35;;
49842;SDS011;55559;48.898;9.184;2023-04-21T13:55:01;3.65;;;2.65;;
49842;SDS011;55559;48.898;9.184;2023-04-21T13:57:29;4.35;;;3.08;;
49842;SDS011;55559;48.898;9.184;2023-04-21T13:59:57;4.53;;;2.83;;
49842;SDS011;55559;48.898;9.184;2023-04-21T14:02:24;9.45;;;2.75;;
49842;SDS011;55559;48.898;9.184;2023-04-21T14:04:52;2.97;;;2.22;;
49842;SDS011;55559;48.898;9.184;2023-04-21T14:07:19;3.63;;;2.10;;
49842;SDS011;55559;48.898;9.184;2023-04-21T14:09:49;4.57;;;2.88;;
49842;SDS011;55559;48.898;9.184;2023-04-21T14:12:17;3.00;;;2.30;;
49842;SDS011;55559;48.898;9.184;2023-04-21T14:14:44;3.65;;;2.10;;
49842;SDS011;55559;48.898;9.184;2023-04-21T14:17:12;5.78;;;3.38;;
49842;SDS011;55559;48.898;9.184;2023-04-21T14:19:41;2.50;;;2.22;;
49842;SDS011;55559;48.898;9.184;2023-04-21T14:22:08;3.45;;;2.33;;
49842;SDS011;55559;48.898;9.184;2023-04-21T14:24:36;4.10;;;2.28;;
49842;SDS011;55559;48.898;9.184;2023-04-21T14:27:05;4.00;;;2.00;;
49842;SDS011;55559;48.898;9.184;2023-04-21T14:29:32;3.33;;;1.63;;
49842;SDS011;55559;48.898;9.184;2023-04-21T14:32:00;2.30;;;2.10;;
49842;SDS011;55559;48.898;9.184;2023-04-21T14:34:27;6.18;;;1.80;;
49842;SDS011;55559;48.898;9.184;2023-04-21T14:36:55;6.72;;;2.50;;
49842;SDS011;55559;48.898;9.184;2023-04-21T14:39:22;7.20;;;2.05;;
49842;SDS011;55559;48.898;9.184;2023-04-21T14:41:50;3.08;;;2.28;;
49842;SDS011;55559;48.898;9.184;2023-04-21T14:44:19;3.92;;;2.10;;
49842;SDS011;55559;48.898;9.184;2023-04-21T14:46:47;4.35;;;1.92;;
49842;SDS011;55559;48.898;9.184;2023-04-21T14:49:14;2.38;;;1.52;;
49842;SDS011;55559;48.898;9.184;2023-04-21T14:51:41;7.00;;;1.10;;
49842;SDS011;55559;48.898;9.184;2023-04-21T14:54:10;2.10;;;1.10;;
49842;SDS011;55559;48.898;9.184;2023-04-21T14:56:38;2.92;;;1.20;;
49842;SDS011;55559;48.898;9.184;2023-04-21T14:59:05;1.83;;;1.20;;
49842;SDS011;55559;48.898;9.184;2023-04-21T15:01:36;2.67;;;1.10;;
49842;SDS011;55559;48.898;9.184;2023-04-21T15:04:03;4.03;;;1.27;;
49842;SDS011;55559;48.898;9.184;2023-04-21T15:06:31;5.88;;;0.90;;
49842;SDS011;55559;48.898;9.184;2023-04-21T15:08:59;3.60;;;0.93;;
49842;SDS011;55559;48.898;9.184;2023-04-21T15:11:26;2.15;;;0.93;;
49842;SDS011;55559;48.898;9.184;2023-04-21T15:13:54;2.28;;;0.80;;
49842;SDS011;55559;48.898;9.184;2023-04-21T15:16:21;6.80;;;0.90;;
49842;SDS011;55559;48.898;9.184;2023-04-21T15:18:50;4.40;;;0.85;;
49842;SDS011;55559;48.898;9.184;2023-04-21T15:21:18;3.70;;;0.80;;
49842;SDS011;55559;48.898;9.184;2023-04-21T15:23:45;5.43;;;0.70;;
49842;SDS011;55559;48.898;9.184;2023-04-21T15:26:13;4.20;;;0.70;;
49842;SDS011;55559;48.898;9.184;2023-04-21T15:28:41;1.42;;;0.82;;
49842;SDS011;55559;48.898;9.184;2023-04-21T15:31:08;4.55;;;0.90;;
49842;SDS011;55559;48.898;9.184;2023-04-21T15:33:35;3.80;;;0.93;;
49842;SDS011;55559;48.898;9.184;2023-04-21T15:36:05;5.00;;;0.60;;
49842;SDS011;55559;48.898;9.184;2023-04-21T15:38:32;12.77;;;0.63;;
49842;SDS011;55559;48.898;9.184;2023-04-21T15:41:00;1.27;;;0.60;;
49842;SDS011;55559;48.898;9.184;2023-04-21T15:43:27;1.45;;;0.63;;
49842;SDS011;55559;48.898;9.184;2023-04-21T15:45:55;4.40;;;0.50;;
49842;SDS011;55559;48.898;9.184;2023-04-21T15:48:22;1.15;;;0.50;;
49842;SDS011;55559;48.898;9.184;2023-04-21T15:50:49;1.55;;;0.50;;
49842;SDS011;55559;48.898;9.184;2023-04-21T15:53:18;2.13;;;0.50;;
49842;SDS011;55559;48.898;9.184;2023-04-21T15:55:46;3.20;;;0.40;;
49842;SDS011;55559;48.898;9.184;2023-04-21T15:58:13;0.90;;;0.40;;
49842;SDS011;55559;48.898;9.184;2023-04-21T16:00:41;0.88;;;0.45;;
49842;SDS011;55559;48.898;9.184;2023-04-21T16:03:10;2.85;;;0.70;;
49842;SDS011;55559;48.898;9.184;2023-04-21T16:05:37;1.65;;;0.50;;
49842;SDS011;55559;48.898;9.184;2023-04-21T16:08:05;1.40;;;0.50;;
49842;SDS011;55559;48.898;9.184;2023-04-21T16:10:34;4.57;;;0.40;;
49842;SDS011;55559;48.898;9.184;2023-04-21T16:13:02;1.85;;;0.55;;
49842;SDS011;55559;48.898;9.184;2023-04-21T16:15:29;0.95;;;0.40;;
49842;SDS011;55559;48.898;9.184;2023-04-21T16:17:56;1.98;;;0.50;;
49842;SDS011;55559;48.898;9.184;2023-04-21T16:20:26;2.80;;;0.60;;
49842;SDS011;55559;48.898;9.184;2023-04-21T16:22:53;11.77;;;0.55;;
49842;SDS011;55559;48.898;9.184;2023-04-21T16:25:21;1.15;;;0.50;;
49842;SDS011;55559;48.898;9.184;2023-04-21T16:27:50;7.35;;;0.70;;
49842;SDS011;55559;48.898;9.184;2023-04-21T16:30:18;1.70;;;0.50;;